sensor_id;sensor_type;location;lat;lon;timestamp;pressure;altitude;pressure_sealevel;temperature;humidity
44765;BME280;30484;52.382;5.260;2023-07-02T00:01:45;100757.50;;;20.11;100.00
44765;BME280;30484;52.382;5.260;2023-07-02T00:04:16;100749.63;;;20.38;100.00
44765;BME280;30484;52.382;5.260;2023-07-02T00:06:48;100751.19;;;20.30;100.00
44765;BME280;30484;52.382;5.260;2023-07-02T00:09:21;100744.88;;;19.91;100.00
44765;BME280;30484;52.382;5.260;2023-07-02T00:11:51;100752.06;;;20.11;100.00
44765;BME280;30484;52.382;5.260;2023-07-02T00:14:21;100749.03;;;19.95;100.00
44765;BME280;30484;52.382;5.260;2023-07-02T00:16:50;100746.44;;;19.83;100.00
44765;BME280;30484;52.382;5.260;2023-07-02T00:19:21;100747.47;;;20.12;100.00
44765;BME280;30484;52.382;5.260;2023-07-02T00:21:54;100744.63;;;19.94;100.00
44765;BME280;30484;52.382;5.260;2023-07-02T00:24:27;100738.06;;;20.06;100.00
44765;BME280;30484;52.382;5.260;2023-07-02T00:26:57;100747.94;;;19.66;100.00
44765;BME280;30484;52.382;5.260;2023-07-02T00:29:27;100749.84;;;19.76;100.00
44765;BME280;30484;52.382;5.260;2023-07-02T00:31:57;100747.47;;;19.82;100.00
44765;BME280;30484;52.382;5.260;2023-07-02T00:34:29;100735.28;;;19.67;100.00
44765;BME280;30484;52.382;5.260;2023-07-02T00:36:59;100745.09;;;19.58;100.00
44765;BME280;30484;52.382;5.260;2023-07-02T00:39:33;100747.28;;;19.74;100.00
44765;BME280;30484;52.382;5.260;2023-07-02T00:42:04;100752.31;;;19.89;100.00
44765;BME280;30484;52.382;5.260;2023-07-02T00:44:34;100742.63;;;19.45;100.00
44765;BME280;30484;52.382;5.260;2023-07-02T00:47:10;100737.66;;;19.60;100.00
44765;BME280;30484;52.382;5.260;2023-07-02T00:49:40;100734.00;;;19.71;100.00
44765;BME280;30484;52.382;5.260;2023-07-02T00:52:11;100736.97;;;19.68;100.00
44765;BME280;30484;52.382;5.260;2023-07-02T00:54:44;100727.75;;;19.30;100.00
44765;BME280;30484;52.382;5.260;2023-07-02T00:57:14;100750.59;;;19.37;100.00
44765;BME280;30484;52.382;5.260;2023-07-02T00:59:45;100734.78;;;19.52;100.00
44765;BME280;30484;52.382;5.260;2023-07-02T01:02:15;100744.44;;;19.35;100.00
44765;BME280;30484;52.382;5.260;2023-07-02T01:04:44;100742.97;;;19.31;100.00
44765;BME280;30484;52.382;5.260;2023-07-02T01:07:17;100757.72;;;19.07;100.00
44765;BME280;30484;52.382;5.260;2023-07-02T01:09:47;100759.97;;;19.33;100.00
44765;BME280;30484;52.382;5.260;2023-07-02T01:12:17;100750.31;;;19.09;100.00
44765;BME280;30484;52.382;5.260;2023-07-02T01:14:51;100757.34;;;19.22;100.00
44765;BME280;30484;52.382;5.260;2023-07-02T01:17:22;100756.94;;;19.26;100.00
44765;BME280;30484;52.382;5.260;2023-07-02T01:19:55;100749.69;;;18.96;100.00
44765;BME280;30484;52.382;5.260;2023-07-02T01:22:28;100759.44;;;19.08;100.00
44765;BME280;30484;52.382;5.260;2023-07-02T01:24:57;100755.44;;;19.12;100.00
44765;BME280;30484;52.382;5.260;2023-07-02T01:27:28;100758.94;;;19.24;100.00
44765;BME280;30484;52.382;5.260;2023-07-02T01:29:57;100766.50;;;19.00;100.00
44765;BME280;30484;52.382;5.260;2023-07-02T01:32:25;100762.25;;;19.07;100.00
44765;BME280;30484;52.382;5.260;2023-07-02T01:34:56;100767.44;;;19.10;100.00
44765;BME280;30484;52.382;5.260;2023-07-02T01:37:26;100762.53;;;19.04;100.00
44765;BME280;30484;52.382;5.260;2023-07-02T01:39:54;100757.81;;;18.96;100.00
44765;BME280;30484;52.382;5.260;2023-07-02T01:42:23;100760.69;;;18.62;100.00
44765;BME280;30484;52.382;5.260;2023-07-02T01:44:52;100767.94;;;19.04;100.00
44765;BME280;30484;52.382;5.260;2023-07-02T01:47:20;100768.16;;;18.91;100.00
44765;BME280;30484;52.382;5.260;2023-07-02T01:49:50;100766.09;;;18.83;100.00
44765;BME280;30484;52.382;5.260;2023-07-02T01:52:20;100776.00;;;18.94;100.00
44765;BME280;30484;52.382;5.260;2023-07-02T01:54:50;100775.22;;;19.03;100.00
44765;BME280;30484;52.382;5.260;2023-07-02T01:57:19;100769.41;;;18.87;100.00
44765;BME280;30484;52.382;5.260;2023-07-02T01:59:48;100777.41;;;18.88;100.00
44765;BME280;30484;52.382;5.260;2023-07-02T02:02:17;100780.09;;;19.09;100.00
44765;BME280;30484;52.382;5.260;2023-07-02T02:04:47;100775.94;;;19.05;100.00
44765;BME280;30484;52.382;5.260;2023-07-02T02:07:15;100783.78;;;18.66;100.00
44765;BME280;30484;52.382;5.260;2023-07-02T02:09:46;100774.44;;;18.91;100.00
44765;BME280;30484;52.382;5.260;2023-07-02T02:12:15;100779.94;;;19.01;100.00
44765;BME280;30484;52.382;5.260;2023-07-02T02:14:46;100778.19;;;18.79;100.00
44765;BME280;30484;52.382;5.260;2023-07-02T02:17:15;100779.47;;;18.42;100.00
44765;BME280;30484;52.382;5.260;2023-07-02T02:19:43;100777.91;;;18.61;100.00
44765;BME280;30484;52.382;5.260;2023-07-02T02:22:12;100767.78;;;18.42;100.00
44765;BME280;30484;52.382;5.260;2023-07-02T02:24:41;100770.97;;;18.68;100.00
44765;BME280;30484;52.382;5.260;2023-07-02T02:27:11;100772.69;;;18.69;100.00
44765;BME280;30484;52.382;5.260;2023-07-02T02:29:41;100776.97;;;18.51;100.00
44765;BME280;30484;52.382;5.260;2023-07-02T02:32:11;100783.78;;;18.66;100.00
44765;BME280;30484;52.382;5.260;2023-07-02T02:34:41;100779.69;;;18.51;100.00
44765;BME280;30484;52.382;5.260;2023-07-02T02:37:12;100790.19;;;18.65;100.00
44765;BME280;30484;52.382;5.260;2023-07-02T02:39:42;100790.19;;;18.65;100.00
44765;BME280;30484;52.382;5.260;2023-07-02T02:42:13;100791.06;;;18.33;100.00
44765;BME280;30484;52.382;5.260;2023-07-02T02:44:42;100798.16;;;18.67;100.00
44765;BME280;30484;52.382;5.260;2023-07-02T02:47:11;100791.81;;;18.56;100.00
44765;BME280;30484;52.382;5.260;2023-07-02T02:49:41;100795.28;;;18.58;100.00
44765;BME280;30484;52.382;5.260;2023-07-02T02:52:10;100794.84;;;18.42;100.00
44765;BME280;30484;52.382;5.260;2023-07-02T02:54:42;100795.78;;;18.52;100.00
44765;BME280;30484;52.382;5.260;2023-07-02T02:57:13;100800.88;;;18.45;100.00
44765;BME280;30484;52.382;5.260;2023-07-02T02:59:43;100796.44;;;18.44;100.00
44765;BME280;30484;52.382;5.260;2023-07-02T03:02:12;100787.38;;;18.34;100.00
44765;BME280;30484;52.382;5.260;2023-07-02T03:04:42;100798.69;;;18.28;100.00
44765;BME280;30484;52.382;5.260;2023-07-02T03:07:12;100802.91;;;18.53;100.00
44765;BME280;30484;52.382;5.260;2023-07-02T03:09:42;100796.97;;;18.27;100.00
44765;BME280;30484;52.382;5.260;2023-07-02T03:12:14;100797.38;;;18.22;100.00
44765;BME280;30484;52.382;5.260;2023-07-02T03:14:44;100799.06;;;18.35;100.00
44765;BME280;30484;52.382;5.260;2023-07-02T03:17:15;100800.75;;;18.03;100.00
44765;BME280;30484;52.382;5.260;2023-07-02T03:19:44;100794.53;;;18.24;100.00
44765;BME280;30484;52.382;5.260;2023-07-02T03:22:14;100816.88;;;18.37;100.00
44765;BME280;30484;52.382;5.260;2023-07-02T03:24:43;100815.19;;;18.25;100.00
44765;BME280;30484;52.382;5.260;2023-07-02T03:27:18;100804.47;;;18.35;100.00
44765;BME280;30484;52.382;5.260;2023-07-02T03:29:48;100813.38;;;18.14;100.00
44765;BME280;30484;52.382;5.260;2023-07-02T03:32:18;100825.72;;;18.39;100.00
44765;BME280;30484;52.382;5.260;2023-07-02T03:34:47;100828.44;;;18.28;100.00
44765;BME280;30484;52.382;5.260;2023-07-02T03:37:17;100824.13;;;18.37;100.00
44765;BME280;30484;52.382;5.260;2023-07-02T03:39:49;100828.06;;;18.33;100.00
44765;BME280;30484;52.382;5.260;2023-07-02T03:42:20;100822.13;;;18.06;100.00
44765;BME280;30484;52.382;5.260;2023-07-02T03:44:49;100820.66;;;18.02;100.00
44765;BME280;30484;52.382;5.260;2023-07-02T03:47:21;100819.59;;;18.37;100.00
44765;BME280;30484;52.382;5.260;2023-07-02T03:49:52;100820.25;;;18.18;100.00
44765;BME280;30484;52.382;5.260;2023-07-02T03:52:21;100819.06;;;18.43;100.00
44765;BME280;30484;52.382;5.260;2023-07-02T03:54:51;100825.75;;;18.28;100.00
44765;BME280;30484;52.382;5.260;2023-07-02T03:57:22;100822.59;;;18.23;100.00
44765;BME280;30484;52.382;5.260;2023-07-02T03:59:54;100828.00;;;18.23;100.00
44765;BME280;30484;52.382;5.260;2023-07-02T04:02:26;100829.09;;;18.20;100.00
44765;BME280;30484;52.382;5.260;2023-07-02T04:04:55;100839.41;;;18.26;100.00
44765;BME280;30484;52.382;5.260;2023-07-02T04:07:25;100834.03;;;18.48;100.00
44765;BME280;30484;52.382;5.260;2023-07-02T04:09:56;100846.09;;;18.43;100.00
44765;BME280;30484;52.382;5.260;2023-07-02T04:12:31;100835.00;;;18.14;100.00
44765;BME280;30484;52.382;5.260;2023-07-02T04:15:02;100850.22;;;18.26;100.00
44765;BME280;30484;52.382;5.260;2023-07-02T04:17:35;100848.88;;;18.21;100.00
44765;BME280;30484;52.382;5.260;2023-07-02T04:20:05;100851.84;;;18.18;100.00
44765;BME280;30484;52.382;5.260;2023-07-02T04:22:35;100843.41;;;18.43;100.00
44765;BME280;30484;52.382;5.260;2023-07-02T04:25:05;100857.28;;;18.50;100.00
44765;BME280;30484;52.382;5.260;2023-07-02T04:28:00;100850.38;;;18.02;100.00
44765;BME280;30484;52.382;5.260;2023-07-02T04:30:31;100858.47;;;18.25;100.00
44765;BME280;30484;52.382;5.260;2023-07-02T04:33:01;100841.75;;;18.20;100.00
44765;BME280;30484;52.382;5.260;2023-07-02T04:35:32;100852.78;;;18.28;100.00
44765;BME280;30484;52.382;5.260;2023-07-02T04:38:02;100863.47;;;18.29;100.00
44765;BME280;30484;52.382;5.260;2023-07-02T04:40:32;100858.75;;;18.54;100.00
44765;BME280;30484;52.382;5.260;2023-07-02T04:43:04;100865.44;;;18.71;100.00
44765;BME280;30484;52.382;5.260;2023-07-02T04:45:34;100872.78;;;18.37;100.00
44765;BME280;30484;52.382;5.260;2023-07-02T04:48:05;100870.94;;;18.49;100.00
44765;BME280;30484;52.382;5.260;2023-07-02T04:50:35;100873.09;;;18.66;100.00
44765;BME280;30484;52.382;5.260;2023-07-02T04:53:08;100876.38;;;18.70;100.00
44765;BME280;30484;52.382;5.260;2023-07-02T04:55:37;100872.09;;;18.67;100.00
44765;BME280;30484;52.382;5.260;2023-07-02T04:58:09;100874.34;;;18.51;100.00
44765;BME280;30484;52.382;5.260;2023-07-02T05:00:38;100870.03;;;18.92;100.00
44765;BME280;30484;52.382;5.260;2023-07-02T05:03:07;100870.53;;;18.97;100.00
44765;BME280;30484;52.382;5.260;2023-07-02T05:05:37;100880.88;;;18.80;100.00
44765;BME280;30484;52.382;5.260;2023-07-02T05:08:05;100876.16;;;18.94;100.00
44765;BME280;30484;52.382;5.260;2023-07-02T05:10:34;100860.47;;;19.09;100.00
44765;BME280;30484;52.382;5.260;2023-07-02T05:13:03;100874.72;;;19.32;100.00
44765;BME280;30484;52.382;5.260;2023-07-02T05:15:34;100877.97;;;19.05;100.00
44765;BME280;30484;52.382;5.260;2023-07-02T05:18:03;100878.69;;;19.28;100.00
44765;BME280;30484;52.382;5.260;2023-07-02T05:20:34;100880.00;;;19.55;100.00
44765;BME280;30484;52.382;5.260;2023-07-02T05:23:02;100885.03;;;19.38;100.00
44765;BME280;30484;52.382;5.260;2023-07-02T05:25:32;100881.53;;;19.47;100.00
44765;BME280;30484;52.382;5.260;2023-07-02T05:28:01;100888.94;;;19.76;100.00
44765;BME280;30484;52.382;5.260;2023-07-02T05:30:32;100890.50;;;19.48;100.00
44765;BME280;30484;52.382;5.260;2023-07-02T05:33:01;100889.38;;;19.51;100.00
44765;BME280;30484;52.382;5.260;2023-07-02T05:35:30;100887.06;;;19.46;100.00
44765;BME280;30484;52.382;5.260;2023-07-02T05:37:59;100891.72;;;19.65;100.00
44765;BME280;30484;52.382;5.260;2023-07-02T05:40:28;100890.56;;;19.58;100.00
44765;BME280;30484;52.382;5.260;2023-07-02T05:42:58;100900.13;;;19.83;100.00
44765;BME280;30484;52.382;5.260;2023-07-02T05:45:27;100899.34;;;20.02;100.00
44765;BME280;30484;52.382;5.260;2023-07-02T05:47:57;100899.28;;;19.82;100.00
44765;BME280;30484;52.382;5.260;2023-07-02T05:50:26;100897.66;;;20.21;100.00
44765;BME280;30484;52.382;5.260;2023-07-02T05:52:55;100902.19;;;20.00;100.00
44765;BME280;30484;52.382;5.260;2023-07-02T05:55:24;100905.22;;;20.07;100.00
44765;BME280;30484;52.382;5.260;2023-07-02T05:57:53;100909.78;;;20.16;100.00
44765;BME280;30484;52.382;5.260;2023-07-02T06:00:24;100907.19;;;19.74;100.00
44765;BME280;30484;52.382;5.260;2023-07-02T06:02:54;100917.13;;;20.26;100.00
44765;BME280;30484;52.382;5.260;2023-07-02T06:05:26;100921.47;;;20.07;100.00
44765;BME280;30484;52.382;5.260;2023-07-02T06:07:56;100914.16;;;19.88;100.00
44765;BME280;30484;52.382;5.260;2023-07-02T06:10:27;100913.06;;;20.10;100.00
44765;BME280;30484;52.382;5.260;2023-07-02T06:12:56;100910.78;;;20.06;100.00
44765;BME280;30484;52.382;5.260;2023-07-02T06:15:31;100928.78;;;20.16;100.00
44765;BME280;30484;52.382;5.260;2023-07-02T06:18:02;100935.47;;;20.53;100.00
44765;BME280;30484;52.382;5.260;2023-07-02T06:20:34;100920.91;;;20.13;100.00
44765;BME280;30484;52.382;5.260;2023-07-02T06:23:04;100932.44;;;20.46;100.00
44765;BME280;30484;52.382;5.260;2023-07-02T06:25:33;100922.41;;;20.27;100.00
44765;BME280;30484;52.382;5.260;2023-07-02T06:28:03;100919.25;;;20.32;100.00
44765;BME280;30484;52.382;5.260;2023-07-02T06:30:32;100930.84;;;20.34;100.00
44765;BME280;30484;52.382;5.260;2023-07-02T06:33:03;100933.75;;;20.42;100.00
44765;BME280;30484;52.382;5.260;2023-07-02T06:35:34;100939.69;;;20.86;100.00
44765;BME280;30484;52.382;5.260;2023-07-02T06:38:03;100928.97;;;20.85;100.00
44765;BME280;30484;52.382;5.260;2023-07-02T06:40:32;100946.16;;;20.55;100.00
44765;BME280;30484;52.382;5.260;2023-07-02T06:43:02;100939.78;;;20.65;100.00
44765;BME280;30484;52.382;5.260;2023-07-02T06:45:38;100944.91;;;20.59;100.00
44765;BME280;30484;52.382;5.260;2023-07-02T06:48:09;100945.25;;;20.75;100.00
44765;BME280;30484;52.382;5.260;2023-07-02T06:50:43;100958.25;;;20.91;100.00
44765;BME280;30484;52.382;5.260;2023-07-02T06:53:17;100960.13;;;21.30;100.00
44765;BME280;30484;52.382;5.260;2023-07-02T06:55:46;100959.56;;;21.07;100.00
44765;BME280;30484;52.382;5.260;2023-07-02T06:58:16;100965.69;;;21.09;100.00
44765;BME280;30484;52.382;5.260;2023-07-02T07:00:45;100974.53;;;21.40;100.00
44765;BME280;30484;52.382;5.260;2023-07-02T07:03:19;100974.13;;;21.54;100.00
44765;BME280;30484;52.382;5.260;2023-07-02T07:05:51;100971.53;;;21.63;100.00
44765;BME280;30484;52.382;5.260;2023-07-02T07:08:21;100980.72;;;21.42;100.00
44765;BME280;30484;52.382;5.260;2023-07-02T07:10:51;100983.31;;;21.53;100.00
44765;BME280;30484;52.382;5.260;2023-07-02T07:13:20;100981.56;;;21.43;100.00
44765;BME280;30484;52.382;5.260;2023-07-02T07:15:49;100990.41;;;21.45;100.00
44765;BME280;30484;52.382;5.260;2023-07-02T07:18:18;100987.56;;;21.66;100.00
44765;BME280;30484;52.382;5.260;2023-07-02T07:20:47;100990.44;;;21.54;100.00
44765;BME280;30484;52.382;5.260;2023-07-02T07:23:18;100988.91;;;21.99;100.00
44765;BME280;30484;52.382;5.260;2023-07-02T07:25:47;100992.91;;;22.05;100.00
44765;BME280;30484;52.382;5.260;2023-07-02T07:28:17;101001.97;;;21.76;100.00
44765;BME280;30484;52.382;5.260;2023-07-02T07:30:46;100994.09;;;21.83;100.00
44765;BME280;30484;52.382;5.260;2023-07-02T07:33:16;101011.75;;;22.16;100.00
44765;BME280;30484;52.382;5.260;2023-07-02T07:35:46;101006.13;;;21.70;100.00
44765;BME280;30484;52.382;5.260;2023-07-02T07:38:16;101010.84;;;22.26;100.00
44765;BME280;30484;52.382;5.260;2023-07-02T07:40:47;101009.84;;;22.27;100.00
44765;BME280;30484;52.382;5.260;2023-07-02T07:43:17;101016.00;;;21.91;100.00
44765;BME280;30484;52.382;5.260;2023-07-02T07:45:47;101012.09;;;22.03;100.00
44765;BME280;30484;52.382;5.260;2023-07-02T07:48:16;101013.84;;;22.42;100.00
44765;BME280;30484;52.382;5.260;2023-07-02T07:50:45;101017.72;;;22.39;100.00
44765;BME280;30484;52.382;5.260;2023-07-02T07:53:14;101014.59;;;22.62;100.00
44765;BME280;30484;52.382;5.260;2023-07-02T07:55:43;101017.97;;;22.46;100.00
44765;BME280;30484;52.382;5.260;2023-07-02T07:58:14;101012.31;;;22.57;100.00
44765;BME280;30484;52.382;5.260;2023-07-02T08:00:42;101004.28;;;22.18;100.00
44765;BME280;30484;52.382;5.260;2023-07-02T08:03:11;101013.44;;;22.65;100.00
44765;BME280;30484;52.382;5.260;2023-07-02T08:05:40;101015.44;;;22.35;100.00
44765;BME280;30484;52.382;5.260;2023-07-02T08:08:08;101006.78;;;22.95;100.00
44765;BME280;30484;52.382;5.260;2023-07-02T08:10:37;101015.06;;;22.57;100.00
44765;BME280;30484;52.382;5.260;2023-07-02T08:13:07;101025.97;;;22.48;100.00
44765;BME280;30484;52.382;5.260;2023-07-02T08:15:39;101024.31;;;22.37;100.00
44765;BME280;30484;52.382;5.260;2023-07-02T08:18:07;101008.69;;;22.67;100.00
44765;BME280;30484;52.382;5.260;2023-07-02T08:20:39;101023.28;;;22.66;100.00
44765;BME280;30484;52.382;5.260;2023-07-02T08:23:07;101022.47;;;23.11;100.00
44765;BME280;30484;52.382;5.260;2023-07-02T08:25:36;101028.69;;;23.21;100.00
44765;BME280;30484;52.382;5.260;2023-07-02T08:28:05;101029.00;;;23.18;100.00
44765;BME280;30484;52.382;5.260;2023-07-02T08:30:33;101023.00;;;23.33;100.00
44765;BME280;30484;52.382;5.260;2023-07-02T08:33:04;101028.25;;;22.98;100.00
44765;BME280;30484;52.382;5.260;2023-07-02T08:35:33;101028.94;;;22.82;100.00
44765;BME280;30484;52.382;5.260;2023-07-02T08:38:02;101037.97;;;22.83;100.00
44765;BME280;30484;52.382;5.260;2023-07-02T08:40:31;101042.94;;;23.15;100.00
44765;BME280;30484;52.382;5.260;2023-07-02T08:43:00;101052.75;;;23.44;100.00
44765;BME280;30484;52.382;5.260;2023-07-02T08:45:30;101047.34;;;23.88;100.00
44765;BME280;30484;52.382;5.260;2023-07-02T08:47:59;101046.25;;;23.09;100.00
44765;BME280;30484;52.382;5.260;2023-07-02T08:50:31;101041.97;;;23.06;100.00
44765;BME280;30484;52.382;5.260;2023-07-02T08:53:01;101060.09;;;23.61;100.00
44765;BME280;30484;52.382;5.260;2023-07-02T08:55:30;101044.25;;;23.47;100.00
44765;BME280;30484;52.382;5.260;2023-07-02T08:58:01;101048.84;;;23.29;100.00
44765;BME280;30484;52.382;5.260;2023-07-02T09:00:30;101050.13;;;22.88;100.00
44765;BME280;30484;52.382;5.260;2023-07-02T09:03:13;101053.16;;;23.13;100.00
44765;BME280;30484;52.382;5.260;2023-07-02T09:05:54;101056.00;;;23.66;100.00
44765;BME280;30484;52.382;5.260;2023-07-02T09:08:24;101060.91;;;23.80;100.00
44765;BME280;30484;52.382;5.260;2023-07-02T09:10:53;101052.56;;;23.82;100.00
44765;BME280;30484;52.382;5.260;2023-07-02T09:13:25;101064.41;;;24.17;100.00
44765;BME280;30484;52.382;5.260;2023-07-02T09:15:55;101062.56;;;24.17;100.00
44765;BME280;30484;52.382;5.260;2023-07-02T09:18:27;101066.72;;;23.59;100.00
44765;BME280;30484;52.382;5.260;2023-07-02T09:21:08;101057.47;;;23.78;100.00
44765;BME280;30484;52.382;5.260;2023-07-02T09:23:37;101062.66;;;24.34;100.00
44765;BME280;30484;52.382;5.260;2023-07-02T09:26:05;101059.31;;;24.48;100.00
44765;BME280;30484;52.382;5.260;2023-07-02T09:28:34;101065.13;;;24.19;100.00
44765;BME280;30484;52.382;5.260;2023-07-02T09:31:05;101073.91;;;23.86;100.00
44765;BME280;30484;52.382;5.260;2023-07-02T09:33:33;101063.28;;;24.01;100.00
44765;BME280;30484;52.382;5.260;2023-07-02T09:36:02;101066.75;;;24.03;100.00
44765;BME280;30484;52.382;5.260;2023-07-02T09:38:32;101062.38;;;23.92;100.00
44765;BME280;30484;52.382;5.260;2023-07-02T09:41:01;101067.16;;;23.90;100.00
44765;BME280;30484;52.382;5.260;2023-07-02T09:43:31;101071.94;;;24.49;100.00
44765;BME280;30484;52.382;5.260;2023-07-02T09:46:00;101067.97;;;24.09;100.00
44765;BME280;30484;52.382;5.260;2023-07-02T09:48:32;101070.97;;;23.98;100.00
44765;BME280;30484;52.382;5.260;2023-07-02T09:51:04;101067.31;;;24.15;100.00
44765;BME280;30484;52.382;5.260;2023-07-02T09:53:34;101073.75;;;24.06;100.00
44765;BME280;30484;52.382;5.260;2023-07-02T09:56:03;101070.25;;;23.95;100.00
44765;BME280;30484;52.382;5.260;2023-07-02T09:58:31;101089.06;;;23.44;100.00
44765;BME280;30484;52.382;5.260;2023-07-02T10:01:00;101088.91;;;23.28;100.00
44765;BME280;30484;52.382;5.260;2023-07-02T10:03:30;101087.56;;;23.68;100.00
44765;BME280;30484;52.382;5.260;2023-07-02T10:06:06;101078.69;;;23.48;100.00
44765;BME280;30484;52.382;5.260;2023-07-02T10:08:36;101088.84;;;23.10;100.00
44765;BME280;30484;52.382;5.260;2023-07-02T10:11:09;101084.16;;;23.66;100.00
44765;BME280;30484;52.382;5.260;2023-07-02T10:13:38;101096.72;;;23.59;100.00
44765;BME280;30484;52.382;5.260;2023-07-02T10:16:07;101089.56;;;23.84;100.00
44765;BME280;30484;52.382;5.260;2023-07-02T10:18:35;101095.69;;;22.96;100.00
44765;BME280;30484;52.382;5.260;2023-07-02T10:21:14;101095.03;;;23.12;100.00
44765;BME280;30484;52.382;5.260;2023-07-02T10:23:45;101095.78;;;22.77;100.00
44765;BME280;30484;52.382;5.260;2023-07-02T10:26:15;101104.72;;;22.69;100.00
44765;BME280;30484;52.382;5.260;2023-07-02T10:28:56;101095.94;;;23.49;100.00
44765;BME280;30484;52.382;5.260;2023-07-02T10:31:26;101092.03;;;23.69;100.00
44765;BME280;30484;52.382;5.260;2023-07-02T10:33:56;101091.88;;;23.89;100.00
44765;BME280;30484;52.382;5.260;2023-07-02T10:36:25;101104.78;;;24.31;100.00
44765;BME280;30484;52.382;5.260;2023-07-02T10:39:01;101103.91;;;24.57;100.00
44765;BME280;30484;52.382;5.260;2023-07-02T10:41:33;101106.44;;;24.50;100.00
44765;BME280;30484;52.382;5.260;2023-07-02T10:44:08;101102.56;;;24.95;100.00
44765;BME280;30484;52.382;5.260;2023-07-02T10:46:45;101101.59;;;25.13;100.00
44765;BME280;30484;52.382;5.260;2023-07-02T10:49:14;101118.34;;;25.10;100.00
44765;BME280;30484;52.382;5.260;2023-07-02T10:51:44;101115.25;;;24.44;100.00
44765;BME280;30484;52.382;5.260;2023-07-02T10:54:15;101113.66;;;24.94;100.00
44765;BME280;30484;52.382;5.260;2023-07-02T10:56:45;101128.47;;;25.26;100.00
44765;BME280;30484;52.382;5.260;2023-07-02T10:59:24;101120.59;;;25.31;100.00
44765;BME280;30484;52.382;5.260;2023-07-02T11:01:52;101122.03;;;25.43;100.00
44765;BME280;30484;52.382;5.260;2023-07-02T11:04:23;101121.59;;;24.71;100.00
44765;BME280;30484;52.382;5.260;2023-07-02T11:06:51;101114.63;;;25.27;100.00
44765;BME280;30484;52.382;5.260;2023-07-02T11:09:22;101109.28;;;24.40;100.00
44765;BME280;30484;52.382;5.260;2023-07-02T11:11:54;101129.13;;;24.77;100.00
44765;BME280;30484;52.382;5.260;2023-07-02T11:14:30;101118.97;;;24.61;100.00
44765;BME280;30484;52.382;5.260;2023-07-02T11:17:02;101123.03;;;24.30;100.00
44765;BME280;30484;52.382;5.260;2023-07-02T11:19:33;101124.13;;;25.07;100.00
44765;BME280;30484;52.382;5.260;2023-07-02T11:22:02;101116.56;;;24.92;100.00
44765;BME280;30484;52.382;5.260;2023-07-02T11:24:33;101122.06;;;25.76;100.00
44765;BME280;30484;52.382;5.260;2023-07-02T11:27:04;101120.69;;;25.47;100.00
44765;BME280;30484;52.382;5.260;2023-07-02T11:29:34;101132.03;;;25.26;100.00
44765;BME280;30484;52.382;5.260;2023-07-02T11:32:08;101139.56;;;25.24;100.00
44765;BME280;30484;52.382;5.260;2023-07-02T11:34:38;101131.13;;;25.09;100.00
44765;BME280;30484;52.382;5.260;2023-07-02T11:37:07;101131.88;;;24.51;100.00
44765;BME280;30484;52.382;5.260;2023-07-02T11:39:37;101130.16;;;24.76;100.00
44765;BME280;30484;52.382;5.260;2023-07-02T11:42:06;101138.38;;;24.76;100.00
44765;BME280;30484;52.382;5.260;2023-07-02T11:44:34;101134.81;;;24.05;100.00
44765;BME280;30484;52.382;5.260;2023-07-02T11:47:04;101139.00;;;24.17;100.00
44765;BME280;30484;52.382;5.260;2023-07-02T11:49:33;101144.63;;;25.03;100.00
44765;BME280;30484;52.382;5.260;2023-07-02T11:52:02;101135.28;;;24.79;100.00
44765;BME280;30484;52.382;5.260;2023-07-02T11:54:31;101124.09;;;25.41;100.00
44765;BME280;30484;52.382;5.260;2023-07-02T11:57:01;101136.31;;;26.13;100.00
44765;BME280;30484;52.382;5.260;2023-07-02T11:59:29;101131.31;;;26.00;100.00
44765;BME280;30484;52.382;5.260;2023-07-02T12:01:58;101129.06;;;25.62;100.00
44765;BME280;30484;52.382;5.260;2023-07-02T12:04:26;101129.25;;;25.02;100.00
44765;BME280;30484;52.382;5.260;2023-07-02T12:06:55;101134.91;;;25.92;100.00
44765;BME280;30484;52.382;5.260;2023-07-02T12:09:23;101142.97;;;26.27;100.00
44765;BME280;30484;52.382;5.260;2023-07-02T12:11:53;101125.22;;;26.70;100.00
44765;BME280;30484;52.382;5.260;2023-07-02T12:14:22;101143.09;;;26.98;97.05
44765;BME280;30484;52.382;5.260;2023-07-02T12:16:51;101144.66;;;26.28;90.14
44765;BME280;30484;52.382;5.260;2023-07-02T12:19:20;101151.34;;;26.00;89.75
44765;BME280;30484;52.382;5.260;2023-07-02T12:21:49;101148.22;;;26.69;83.35
44765;BME280;30484;52.382;5.260;2023-07-02T12:24:18;101149.75;;;27.12;78.71
44765;BME280;30484;52.382;5.260;2023-07-02T12:26:46;101150.78;;;27.73;79.53
44765;BME280;30484;52.382;5.260;2023-07-02T12:29:15;101168.03;;;27.82;77.15
44765;BME280;30484;52.382;5.260;2023-07-02T12:31:45;101151.50;;;28.14;72.07
44765;BME280;30484;52.382;5.260;2023-07-02T12:34:14;101153.72;;;27.72;68.25
44765;BME280;30484;52.382;5.260;2023-07-02T12:36:43;101158.56;;;26.10;69.01
44765;BME280;30484;52.382;5.260;2023-07-02T12:39:11;101165.50;;;26.70;68.23
44765;BME280;30484;52.382;5.260;2023-07-02T12:41:44;101159.16;;;26.53;73.23
44765;BME280;30484;52.382;5.260;2023-07-02T12:44:12;101172.63;;;27.35;75.47
44765;BME280;30484;52.382;5.260;2023-07-02T12:46:41;101160.59;;;26.16;75.84
44765;BME280;30484;52.382;5.260;2023-07-02T12:49:12;101178.41;;;26.12;75.61
44765;BME280;30484;52.382;5.260;2023-07-02T12:51:41;101170.00;;;26.30;77.14
44765;BME280;30484;52.382;5.260;2023-07-02T12:54:10;101156.53;;;27.24;71.25
44765;BME280;30484;52.382;5.260;2023-07-02T12:56:49;101177.34;;;27.10;71.05